sensor_id;sensor_type;location;lat;lon;timestamp;P1;durP1;ratioP1;P2;durP2;ratioP2
27113;SDS011;14648;49.730;8.614;2023-04-15T00:01:25;3.07;;;2.37;;
27113;SDS011;14648;49.730;8.614;2023-04-15T00:03:52;3.57;;;2.33;;
27113;SDS011;14648;49.730;8.614;2023-04-15T00:06:22;5.03;;;2.20;;
27113;SDS011;14648;49.730;8.614;2023-04-15T00:08:48;4.47;;;2.20;;
27113;SDS011;14648;49.730;8.614;2023-04-15T00:11:14;2.13;;;1.93;;
27113;SDS011;14648;49.730;8.614;2023-04-15T00:13:41;2.50;;;2.30;;
27113;SDS011;14648;49.730;8.614;2023-04-15T00:16:07;6.27;;;2.50;;
27113;SDS011;14648;49.730;8.614;2023-04-15T00:18:34;3.03;;;2.40;;
27113;SDS011;14648;49.730;8.614;2023-04-15T00:20:59;5.40;;;1.83;;
27113;SDS011;14648;49.730;8.614;2023-04-15T00:23:26;2.20;;;2.00;;
27113;SDS011;14648;49.730;8.614;2023-04-15T00:25:52;1.87;;;1.73;;
27113;SDS011;14648;49.730;8.614;2023-04-15T00:28:18;2.10;;;1.90;;
27113;SDS011;14648;49.730;8.614;2023-04-15T00:30:44;1.60;;;1.50;;
27113;SDS011;14648;49.730;8.614;2023-04-15T00:33:10;2.57;;;1.70;;
27113;SDS011;14648;49.730;8.614;2023-04-15T00:35:37;2.03;;;1.93;;
27113;SDS011;14648;49.730;8.614;2023-04-15T00:38:04;2.10;;;2.00;;
27113;SDS011;14648;49.730;8.614;2023-04-15T00:40:32;4.40;;;2.20;;
27113;SDS011;14648;49.730;8.614;2023-04-15T00:42:58;5.40;;;2.33;;
27113;SDS011;14648;49.730;8.614;2023-04-15T00:45:24;2.20;;;2.00;;
27113;SDS011;14648;49.730;8.614;2023-04-15T00:47:52;5.47;;;1.67;;
27113;SDS011;14648;49.730;8.614;2023-04-15T00:50:21;1.53;;;1.43;;
27113;SDS011;14648;49.730;8.614;2023-04-15T00:52:47;2.13;;;1.53;;
27113;SDS011;14648;49.730;8.614;2023-04-15T00:55:13;1.90;;;1.77;;
27113;SDS011;14648;49.730;8.614;2023-04-15T00:57:39;3.03;;;1.90;;
27113;SDS011;14648;49.730;8.614;2023-04-15T01:00:06;1.90;;;1.70;;
27113;SDS011;14648;49.730;8.614;2023-04-15T01:02:34;2.77;;;2.33;;
27113;SDS011;14648;49.730;8.614;2023-04-15T01:05:00;2.77;;;1.90;;
27113;SDS011;14648;49.730;8.614;2023-04-15T01:07:28;8.40;;;2.30;;
27113;SDS011;14648;49.730;8.614;2023-04-15T01:09:54;4.70;;;2.20;;
27113;SDS011;14648;49.730;8.614;2023-04-15T01:12:20;5.33;;;1.90;;
27113;SDS011;14648;49.730;8.614;2023-04-15T01:14:48;3.03;;;2.50;;
27113;SDS011;14648;49.730;8.614;2023-04-15T01:17:14;5.93;;;3.67;;
27113;SDS011;14648;49.730;8.614;2023-04-15T01:19:40;5.13;;;2.67;;
27113;SDS011;14648;49.730;8.614;2023-04-15T01:22:06;6.30;;;2.63;;
27113;SDS011;14648;49.730;8.614;2023-04-15T01:24:32;5.27;;;2.90;;
27113;SDS011;14648;49.730;8.614;2023-04-15T01:26:59;5.67;;;3.50;;
27113;SDS011;14648;49.730;8.614;2023-04-15T01:29:25;4.17;;;3.40;;
27113;SDS011;14648;49.730;8.614;2023-04-15T01:31:51;2.47;;;2.27;;
27113;SDS011;14648;49.730;8.614;2023-04-15T01:34:19;6.40;;;2.60;;
27113;SDS011;14648;49.730;8.614;2023-04-15T01:36:45;5.27;;;3.43;;
27113;SDS011;14648;49.730;8.614;2023-04-15T01:39:11;2.43;;;2.10;;
27113;SDS011;14648;49.730;8.614;2023-04-15T01:41:37;3.00;;;2.10;;
27113;SDS011;14648;49.730;8.614;2023-04-15T01:44:04;7.03;;;2.33;;
27113;SDS011;14648;49.730;8.614;2023-04-15T01:46:31;2.63;;;2.00;;
27113;SDS011;14648;49.730;8.614;2023-04-15T01:48:56;5.10;;;2.67;;
27113;SDS011;14648;49.730;8.614;2023-04-15T01:51:22;3.20;;;2.50;;
27113;SDS011;14648;49.730;8.614;2023-04-15T01:53:48;4.87;;;2.50;;
27113;SDS011;14648;49.730;8.614;2023-04-15T01:56:13;4.87;;;1.90;;
27113;SDS011;14648;49.730;8.614;2023-04-15T01:58:39;5.00;;;2.23;;
27113;SDS011;14648;49.730;8.614;2023-04-15T02:01:05;4.20;;;2.00;;
27113;SDS011;14648;49.730;8.614;2023-04-15T02:03:32;2.50;;;2.30;;
27113;SDS011;14648;49.730;8.614;2023-04-15T02:05:58;4.57;;;2.70;;
27113;SDS011;14648;49.730;8.614;2023-04-15T02:08:23;8.53;;;2.50;;
27113;SDS011;14648;49.730;8.614;2023-04-15T02:10:49;4.77;;;2.70;;
27113;SDS011;14648;49.730;8.614;2023-04-15T02:13:15;3.57;;;2.60;;
27113;SDS011;14648;49.730;8.614;2023-04-15T02:15:45;4.60;;;2.20;;
27113;SDS011;14648;49.730;8.614;2023-04-15T02:18:16;3.37;;;2.50;;
27113;SDS011;14648;49.730;8.614;2023-04-15T02:20:42;4.87;;;2.73;;
27113;SDS011;14648;49.730;8.614;2023-04-15T02:23:08;6.00;;;3.67;;
27113;SDS011;14648;49.730;8.614;2023-04-15T02:25:35;3.20;;;2.30;;
27113;SDS011;14648;49.730;8.614;2023-04-15T02:28:01;3.70;;;2.70;;
27113;SDS011;14648;49.730;8.614;2023-04-15T02:30:27;7.50;;;2.53;;
27113;SDS011;14648;49.730;8.614;2023-04-15T02:32:52;5.13;;;2.80;;
27113;SDS011;14648;49.730;8.614;2023-04-15T02:35:18;7.50;;;2.70;;
27113;SDS011;14648;49.730;8.614;2023-04-15T02:37:44;3.17;;;2.33;;
27113;SDS011;14648;49.730;8.614;2023-04-15T02:40:10;13.07;;;3.20;;
27113;SDS011;14648;49.730;8.614;2023-04-15T02:42:40;11.00;;;3.47;;
27113;SDS011;14648;49.730;8.614;2023-04-15T02:45:08;5.67;;;2.73;;
27113;SDS011;14648;49.730;8.614;2023-04-15T02:47:34;3.00;;;2.57;;
27113;SDS011;14648;49.730;8.614;2023-04-15T02:50:03;7.70;;;2.60;;
27113;SDS011;14648;49.730;8.614;2023-04-15T02:52:33;2.77;;;2.50;;
27113;SDS011;14648;49.730;8.614;2023-04-15T02:54:58;2.80;;;2.40;;
27113;SDS011;14648;49.730;8.614;2023-04-15T02:57:28;3.37;;;2.80;;
27113;SDS011;14648;49.730;8.614;2023-04-15T02:59:54;5.80;;;2.77;;
27113;SDS011;14648;49.730;8.614;2023-04-15T03:02:20;4.13;;;2.30;;
27113;SDS011;14648;49.730;8.614;2023-04-15T03:04:45;4.43;;;2.33;;
27113;SDS011;14648;49.730;8.614;2023-04-15T03:07:11;2.90;;;2.40;;
27113;SDS011;14648;49.730;8.614;2023-04-15T03:09:37;4.60;;;2.83;;
27113;SDS011;14648;49.730;8.614;2023-04-15T03:12:05;6.50;;;2.90;;
27113;SDS011;14648;49.730;8.614;2023-04-15T03:14:31;8.17;;;3.17;;
27113;SDS011;14648;49.730;8.614;2023-04-15T03:16:57;4.80;;;2.70;;
27113;SDS011;14648;49.730;8.614;2023-04-15T03:19:23;4.00;;;3.60;;
27113;SDS011;14648;49.730;8.614;2023-04-15T03:21:49;4.50;;;3.07;;
27113;SDS011;14648;49.730;8.614;2023-04-15T03:24:16;4.23;;;3.10;;
27113;SDS011;14648;49.730;8.614;2023-04-15T03:26:42;4.90;;;2.87;;
27113;SDS011;14648;49.730;8.614;2023-04-15T03:29:08;4.43;;;2.77;;
27113;SDS011;14648;49.730;8.614;2023-04-15T03:31:34;8.00;;;2.90;;
27113;SDS011;14648;49.730;8.614;2023-04-15T03:33:59;5.60;;;3.17;;
27113;SDS011;14648;49.730;8.614;2023-04-15T03:36:25;9.60;;;3.90;;
27113;SDS011;14648;49.730;8.614;2023-04-15T03:38:53;3.20;;;2.70;;
27113;SDS011;14648;49.730;8.614;2023-04-15T03:41:20;4.00;;;2.43;;
27113;SDS011;14648;49.730;8.614;2023-04-15T03:43:46;3.43;;;2.37;;
27113;SDS011;14648;49.730;8.614;2023-04-15T03:46:12;4.70;;;3.10;;
27113;SDS011;14648;49.730;8.614;2023-04-15T03:48:37;3.53;;;2.30;;
27113;SDS011;14648;49.730;8.614;2023-04-15T03:51:03;3.60;;;2.87;;
27113;SDS011;14648;49.730;8.614;2023-04-15T03:53:29;5.90;;;2.83;;
27113;SDS011;14648;49.730;8.614;2023-04-15T03:55:55;2.60;;;2.33;;
27113;SDS011;14648;49.730;8.614;2023-04-15T03:58:21;5.67;;;3.07;;
27113;SDS011;14648;49.730;8.614;2023-04-15T04:00:47;4.73;;;3.00;;
27113;SDS011;14648;49.730;8.614;2023-04-15T04:03:12;5.63;;;3.10;;
27113;SDS011;14648;49.730;8.614;2023-04-15T04:05:38;8.73;;;3.07;;
27113;SDS011;14648;49.730;8.614;2023-04-15T04:08:05;6.23;;;2.73;;
27113;SDS011;14648;49.730;8.614;2023-04-15T04:10:31;6.30;;;3.00;;
27113;SDS011;14648;49.730;8.614;2023-04-15T04:12:57;6.50;;;3.30;;
27113;SDS011;14648;49.730;8.614;2023-04-15T04:15:22;3.23;;;2.87;;
27113;SDS011;14648;49.730;8.614;2023-04-15T04:17:48;3.40;;;2.90;;
27113;SDS011;14648;49.730;8.614;2023-04-15T04:20:14;4.03;;;2.57;;
27113;SDS011;14648;49.730;8.614;2023-04-15T04:22:40;7.40;;;3.00;;
27113;SDS011;14648;49.730;8.614;2023-04-15T04:25:06;4.87;;;3.00;;
27113;SDS011;14648;49.730;8.614;2023-04-15T04:27:35;6.37;;;3.67;;
27113;SDS011;14648;49.730;8.614;2023-04-15T04:30:01;10.37;;;2.80;;
27113;SDS011;14648;49.730;8.614;2023-04-15T04:32:28;6.20;;;3.40;;
27113;SDS011;14648;49.730;8.614;2023-04-15T04:34:53;4.33;;;3.50;;
27113;SDS011;14648;49.730;8.614;2023-04-15T04:37:19;5.80;;;3.10;;
27113;SDS011;14648;49.730;8.614;2023-04-15T04:39:45;7.10;;;2.87;;
27113;SDS011;14648;49.730;8.614;2023-04-15T04:42:11;5.23;;;3.33;;
27113;SDS011;14648;49.730;8.614;2023-04-15T04:44:37;3.73;;;3.07;;
27113;SDS011;14648;49.730;8.614;2023-04-15T04:47:03;4.17;;;2.40;;
27113;SDS011;14648;49.730;8.614;2023-04-15T04:49:28;3.43;;;2.93;;
27113;SDS011;14648;49.730;8.614;2023-04-15T04:51:54;4.67;;;3.20;;
27113;SDS011;14648;49.730;8.614;2023-04-15T04:54:20;8.07;;;3.27;;
27113;SDS011;14648;49.730;8.614;2023-04-15T04:56:46;7.60;;;3.40;;
27113;SDS011;14648;49.730;8.614;2023-04-15T04:59:12;6.03;;;4.43;;
27113;SDS011;14648;49.730;8.614;2023-04-15T05:01:38;4.73;;;3.57;;
27113;SDS011;14648;49.730;8.614;2023-04-15T05:04:03;4.27;;;3.60;;
27113;SDS011;14648;49.730;8.614;2023-04-15T05:06:30;5.00;;;3.37;;
27113;SDS011;14648;49.730;8.614;2023-04-15T05:08:56;4.60;;;3.33;;
27113;SDS011;14648;49.730;8.614;2023-04-15T05:11:22;5.83;;;3.33;;
27113;SDS011;14648;49.730;8.614;2023-04-15T05:13:48;3.67;;;2.77;;
27113;SDS011;14648;49.730;8.614;2023-04-15T05:16:13;4.47;;;3.53;;
27113;SDS011;14648;49.730;8.614;2023-04-15T05:18:39;7.10;;;4.50;;
27113;SDS011;14648;49.730;8.614;2023-04-15T05:21:05;5.50;;;3.10;;
27113;SDS011;14648;49.730;8.614;2023-04-15T05:23:31;5.37;;;2.60;;
27113;SDS011;14648;49.730;8.614;2023-04-15T05:25:56;3.97;;;2.43;;
27113;SDS011;14648;49.730;8.614;2023-04-15T05:28:22;5.77;;;3.27;;
27113;SDS011;14648;49.730;8.614;2023-04-15T05:30:48;8.03;;;4.33;;
27113;SDS011;14648;49.730;8.614;2023-04-15T05:33:13;4.33;;;3.40;;
27113;SDS011;14648;49.730;8.614;2023-04-15T05:35:39;3.50;;;2.70;;
27113;SDS011;14648;49.730;8.614;2023-04-15T05:38:05;5.40;;;3.67;;
27113;SDS011;14648;49.730;8.614;2023-04-15T05:40:31;3.77;;;2.50;;
27113;SDS011;14648;49.730;8.614;2023-04-15T05:42:56;5.17;;;3.13;;
27113;SDS011;14648;49.730;8.614;2023-04-15T05:45:22;3.80;;;3.13;;
27113;SDS011;14648;49.730;8.614;2023-04-15T05:47:48;3.70;;;3.23;;
27113;SDS011;14648;49.730;8.614;2023-04-15T05:50:15;4.83;;;4.00;;
27113;SDS011;14648;49.730;8.614;2023-04-15T05:52:40;4.43;;;3.50;;
27113;SDS011;14648;49.730;8.614;2023-04-15T05:55:06;4.67;;;3.50;;
27113;SDS011;14648;49.730;8.614;2023-04-15T05:57:33;10.23;;;4.30;;
27113;SDS011;14648;49.730;8.614;2023-04-15T05:59:59;5.80;;;3.73;;
27113;SDS011;14648;49.730;8.614;2023-04-15T06:02:25;4.03;;;3.37;;
27113;SDS011;14648;49.730;8.614;2023-04-15T06:04:51;7.03;;;4.47;;
27113;SDS011;14648;49.730;8.614;2023-04-15T06:07:17;9.33;;;3.83;;
27113;SDS011;14648;49.730;8.614;2023-04-15T06:09:43;4.43;;;3.60;;
27113;SDS011;14648;49.730;8.614;2023-04-15T06:12:09;6.33;;;3.87;;
27113;SDS011;14648;49.730;8.614;2023-04-15T06:14:36;9.37;;;4.40;;
27113;SDS011;14648;49.730;8.614;2023-04-15T06:17:03;7.53;;;5.30;;
27113;SDS011;14648;49.730;8.614;2023-04-15T06:19:28;5.23;;;4.20;;
27113;SDS011;14648;49.730;8.614;2023-04-15T06:21:55;10.90;;;4.80;;
27113;SDS011;14648;49.730;8.614;2023-04-15T06:24:21;11.20;;;4.83;;
27113;SDS011;14648;49.730;8.614;2023-04-15T06:26:46;8.40;;;5.40;;
27113;SDS011;14648;49.730;8.614;2023-04-15T06:29:12;5.40;;;4.37;;
27113;SDS011;14648;49.730;8.614;2023-04-15T06:31:38;11.00;;;4.83;;
27113;SDS011;14648;49.730;8.614;2023-04-15T06:34:04;6.60;;;4.10;;
27113;SDS011;14648;49.730;8.614;2023-04-15T06:36:29;14.20;;;4.43;;
27113;SDS011;14648;49.730;8.614;2023-04-15T06:38:56;7.00;;;4.70;;
27113;SDS011;14648;49.730;8.614;2023-04-15T06:41:22;9.83;;;4.20;;
27113;SDS011;14648;49.730;8.614;2023-04-15T06:43:48;7.93;;;4.77;;
27113;SDS011;14648;49.730;8.614;2023-04-15T06:46:13;5.40;;;4.47;;
27113;SDS011;14648;49.730;8.614;2023-04-15T06:48:39;6.30;;;5.67;;
27113;SDS011;14648;49.730;8.614;2023-04-15T06:51:05;12.90;;;5.33;;
27113;SDS011;14648;49.730;8.614;2023-04-15T06:53:31;6.93;;;5.20;;
27113;SDS011;14648;49.730;8.614;2023-04-15T06:55:56;8.93;;;5.33;;
27113;SDS011;14648;49.730;8.614;2023-04-15T06:58:22;8.67;;;4.90;;
27113;SDS011;14648;49.730;8.614;2023-04-15T07:00:48;6.10;;;5.33;;
27113;SDS011;14648;49.730;8.614;2023-04-15T07:03:14;6.57;;;4.20;;
27113;SDS011;14648;49.730;8.614;2023-04-15T07:05:39;6.63;;;4.73;;
27113;SDS011;14648;49.730;8.614;2023-04-15T07:08:05;6.27;;;4.87;;
27113;SDS011;14648;49.730;8.614;2023-04-15T07:10:32;5.10;;;4.43;;
27113;SDS011;14648;49.730;8.614;2023-04-15T07:12:58;4.77;;;4.23;;
27113;SDS011;14648;49.730;8.614;2023-04-15T07:15:32;8.70;;;5.00;;
27113;SDS011;14648;49.730;8.614;2023-04-15T07:17:58;5.27;;;4.50;;
27113;SDS011;14648;49.730;8.614;2023-04-15T07:20:24;10.10;;;5.60;;
27113;SDS011;14648;49.730;8.614;2023-04-15T07:22:50;10.27;;;4.30;;
27113;SDS011;14648;49.730;8.614;2023-04-15T07:25:15;7.77;;;5.30;;
27113;SDS011;14648;49.730;8.614;2023-04-15T07:27:41;5.10;;;4.27;;
27113;SDS011;14648;49.730;8.614;2023-04-15T07:30:07;5.77;;;4.20;;
27113;SDS011;14648;49.730;8.614;2023-04-15T07:32:34;5.37;;;4.40;;
27113;SDS011;14648;49.730;8.614;2023-04-15T07:35:00;5.07;;;4.27;;
27113;SDS011;14648;49.730;8.614;2023-04-15T07:37:27;4.40;;;3.30;;
27113;SDS011;14648;49.730;8.614;2023-04-15T07:39:53;8.27;;;4.13;;
27113;SDS011;14648;49.730;8.614;2023-04-15T07:42:20;4.37;;;3.20;;
27113;SDS011;14648;49.730;8.614;2023-04-15T07:44:49;6.70;;;4.40;;
27113;SDS011;14648;49.730;8.614;2023-04-15T07:47:16;5.40;;;3.40;;
27113;SDS011;14648;49.730;8.614;2023-04-15T07:49:41;7.00;;;4.07;;
27113;SDS011;14648;49.730;8.614;2023-04-15T07:52:08;5.30;;;3.60;;
27113;SDS011;14648;49.730;8.614;2023-04-15T07:54:34;4.03;;;3.70;;
27113;SDS011;14648;49.730;8.614;2023-04-15T07:56:59;7.17;;;3.93;;
27113;SDS011;14648;49.730;8.614;2023-04-15T07:59:25;6.93;;;3.80;;
27113;SDS011;14648;49.730;8.614;2023-04-15T08:01:54;7.10;;;3.87;;
27113;SDS011;14648;49.730;8.614;2023-04-15T08:04:20;7.33;;;3.60;;
27113;SDS011;14648;49.730;8.614;2023-04-15T08:06:45;9.20;;;4.13;;
27113;SDS011;14648;49.730;8.614;2023-04-15T08:09:12;9.90;;;3.83;;
27113;SDS011;14648;49.730;8.614;2023-04-15T08:11:37;5.80;;;4.17;;
27113;SDS011;14648;49.730;8.614;2023-04-15T08:14:05;3.93;;;3.17;;
27113;SDS011;14648;49.730;8.614;2023-04-15T08:16:31;8.63;;;4.17;;
27113;SDS011;14648;49.730;8.614;2023-04-15T08:18:57;3.53;;;3.30;;
27113;SDS011;14648;49.730;8.614;2023-04-15T08:21:23;4.70;;;3.90;;
27113;SDS011;14648;49.730;8.614;2023-04-15T08:23:50;4.77;;;3.60;;
27113;SDS011;14648;49.730;8.614;2023-04-15T08:26:17;4.13;;;3.73;;
27113;SDS011;14648;49.730;8.614;2023-04-15T08:28:45;3.40;;;3.10;;
27113;SDS011;14648;49.730;8.614;2023-04-15T08:31:14;8.00;;;4.10;;
27113;SDS011;14648;49.730;8.614;2023-04-15T08:33:41;5.50;;;3.90;;
27113;SDS011;14648;49.730;8.614;2023-04-15T08:36:07;4.93;;;4.47;;
27113;SDS011;14648;49.730;8.614;2023-04-15T08:38:33;4.60;;;4.20;;
27113;SDS011;14648;49.730;8.614;2023-04-15T08:41:02;7.20;;;6.10;;
27113;SDS011;14648;49.730;8.614;2023-04-15T08:43:34;4.67;;;4.27;;
27113;SDS011;14648;49.730;8.614;2023-04-15T08:46:04;14.00;;;5.80;;
27113;SDS011;14648;49.730;8.614;2023-04-15T08:48:33;6.83;;;5.67;;
27113;SDS011;14648;49.730;8.614;2023-04-15T08:51:02;5.60;;;4.93;;
27113;SDS011;14648;49.730;8.614;2023-04-15T08:53:29;6.93;;;5.80;;
27113;SDS011;14648;49.730;8.614;2023-04-15T08:55:55;6.20;;;5.13;;
27113;SDS011;14648;49.730;8.614;2023-04-15T08:58:22;6.70;;;5.73;;
27113;SDS011;14648;49.730;8.614;2023-04-15T09:00:49;5.40;;;4.90;;
27113;SDS011;14648;49.730;8.614;2023-04-15T09:03:15;5.90;;;5.00;;
27113;SDS011;14648;49.730;8.614;2023-04-15T09:05:41;9.67;;;6.80;;
27113;SDS011;14648;49.730;8.614;2023-04-15T09:08:07;7.40;;;6.30;;
27113;SDS011;14648;49.730;8.614;2023-04-15T09:10:33;6.30;;;4.80;;
27113;SDS011;14648;49.730;8.614;2023-04-15T09:12:59;7.27;;;5.40;;
27113;SDS011;14648;49.730;8.614;2023-04-15T09:15:26;6.27;;;4.97;;
27113;SDS011;14648;49.730;8.614;2023-04-15T09:17:53;4.60;;;3.00;;
27113;SDS011;14648;49.730;8.614;2023-04-15T09:20:20;5.23;;;4.63;;
27113;SDS011;14648;49.730;8.614;2023-04-15T09:22:47;7.80;;;3.50;;
27113;SDS011;14648;49.730;8.614;2023-04-15T09:30:28;70.03;;;6.37;;
27113;SDS011;14648;49.730;8.614;2023-04-15T09:32:55;12.03;;;4.07;;
27113;SDS011;14648;49.730;8.614;2023-04-15T09:35:24;6.63;;;2.63;;
27113;SDS011;14648;49.730;8.614;2023-04-15T09:37:52;7.80;;;2.87;;
27113;SDS011;14648;49.730;8.614;2023-04-15T09:40:30;3.23;;;2.57;;
27113;SDS011;14648;49.730;8.614;2023-04-15T09:43:07;2.50;;;2.00;;
27113;SDS011;14648;49.730;8.614;2023-04-15T09:45:36;2.60;;;2.40;;
27113;SDS011;14648;49.730;8.614;2023-04-15T09:48:19;2.93;;;2.07;;
27113;SDS011;14648;49.730;8.614;2023-04-15T09:50:49;2.97;;;2.27;;
27113;SDS011;14648;49.730;8.614;2023-04-15T09:53:21;5.13;;;2.10;;
27113;SDS011;14648;49.730;8.614;2023-04-15T09:55:52;2.00;;;1.90;;
27113;SDS011;14648;49.730;8.614;2023-04-15T09:58:21;3.83;;;2.03;;
27113;SDS011;14648;49.730;8.614;2023-04-15T10:00:49;4.60;;;2.10;;
27113;SDS011;14648;49.730;8.614;2023-04-15T10:03:59;3.63;;;2.20;;
27113;SDS011;14648;49.730;8.614;2023-04-15T10:06:06;4.40;;;1.77;;
27113;SDS011;14648;49.730;8.614;2023-04-15T10:08:36;2.83;;;1.87;;
27113;SDS011;14648;49.730;8.614;2023-04-15T10:11:02;6.33;;;2.23;;
27113;SDS011;14648;49.730;8.614;2023-04-15T10:13:29;1.97;;;1.70;;
27113;SDS011;14648;49.730;8.614;2023-04-15T10:16:05;3.70;;;1.63;;
27113;SDS011;14648;49.730;8.614;2023-04-15T10:18:37;2.90;;;1.83;;
27113;SDS011;14648;49.730;8.614;2023-04-15T10:21:07;7.40;;;2.50;;
27113;SDS011;14648;49.730;8.614;2023-04-15T10:23:33;3.27;;;2.50;;
27113;SDS011;14648;49.730;8.614;2023-04-15T10:26:00;2.33;;;1.73;;
27113;SDS011;14648;49.730;8.614;2023-04-15T10:28:27;1.60;;;1.27;;
27113;SDS011;14648;49.730;8.614;2023-04-15T10:30:52;3.13;;;2.13;;
27113;SDS011;14648;49.730;8.614;2023-04-15T10:33:19;1.73;;;1.33;;
27113;SDS011;14648;49.730;8.614;2023-04-15T10:35:47;4.30;;;1.30;;
27113;SDS011;14648;49.730;8.614;2023-04-15T10:38:34;4.93;;;1.00;;
27113;SDS011;14648;49.730;8.614;2023-04-15T10:41:12;1.33;;;1.00;;
27113;SDS011;14648;49.730;8.614;2023-04-15T10:43:38;1.57;;;0.97;;
27113;SDS011;14648;49.730;8.614;2023-04-15T10:46:05;3.40;;;1.10;;
27113;SDS011;14648;49.730;8.614;2023-04-15T10:48:31;1.57;;;1.43;;
27113;SDS011;14648;49.730;8.614;2023-04-15T10:50:59;1.40;;;1.30;;
27113;SDS011;14648;49.730;8.614;2023-04-15T10:53:29;0.80;;;0.80;;
27113;SDS011;14648;49.730;8.614;2023-04-15T10:55:56;1.60;;;1.30;;
27113;SDS011;14648;49.730;8.614;2023-04-15T10:58:23;1.77;;;1.23;;
27113;SDS011;14648;49.730;8.614;2023-04-15T11:00:50;1.30;;;1.20;;
27113;SDS011;14648;49.730;8.614;2023-04-15T11:03:33;1.30;;;1.20;;
27113;SDS011;14648;49.730;8.614;2023-04-15T11:06:07;1.40;;;1.30;;
27113;SDS011;14648;49.730;8.614;2023-04-15T11:12:03;4.77;;;1.37;;
27113;SDS011;14648;49.730;8.614;2023-04-15T11:14:32;4.00;;;2.40;;
27113;SDS011;14648;49.730;8.614;2023-04-15T11:17:00;1.40;;;1.30;;
27113;SDS011;14648;49.730;8.614;2023-04-15T11:19:25;6.90;;;1.67;;
27113;SDS011;14648;49.730;8.614;2023-04-15T11:22:05;3.40;;;1.87;;
27113;SDS011;14648;49.730;8.614;2023-04-15T11:24:35;2.10;;;1.30;;
27113;SDS011;14648;49.730;8.614;2023-04-15T11:27:01;3.40;;;1.40;;
27113;SDS011;14648;49.730;8.614;2023-04-15T11:29:33;2.27;;;2.10;;
27113;SDS011;14648;49.730;8.614;2023-04-15T11:32:08;2.00;;;1.70;;
27113;SDS011;14648;49.730;8.614;2023-04-15T11:34:34;1.63;;;1.53;;
27113;SDS011;14648;49.730;8.614;2023-04-15T11:37:04;2.23;;;1.23;;
27113;SDS011;14648;49.730;8.614;2023-04-15T11:39:30;7.23;;;1.80;;
27113;SDS011;14648;49.730;8.614;2023-04-15T11:41:56;1.63;;;1.53;;
27113;SDS011;14648;49.730;8.614;2023-04-15T11:44:22;2.70;;;1.90;;
27113;SDS011;14648;49.730;8.614;2023-04-15T11:46:48;1.57;;;1.47;;
27113;SDS011;14648;49.730;8.614;2023-04-15T11:49:29;2.20;;;1.17;;
27113;SDS011;14648;49.730;8.614;2023-04-15T11:51:55;1.37;;;1.10;;
27113;SDS011;14648;49.730;8.614;2023-04-15T11:54:21;2.10;;;1.43;;
27113;SDS011;14648;49.730;8.614;2023-04-15T11:56:50;1.30;;;1.20;;
27113;SDS011;14648;49.730;8.614;2023-04-15T11:59:17;1.53;;;1.43;;
27113;SDS011;14648;49.730;8.614;2023-04-15T12:01:43;2.97;;;2.27;;
27113;SDS011;14648;49.730;8.614;2023-04-15T12:04:11;4.63;;;1.83;;
27113;SDS011;14648;49.730;8.614;2023-04-15T12:06:43;7.33;;;3.70;;
27113;SDS011;14648;49.730;8.614;2023-04-15T12:09:09;4.20;;;1.73;;
27113;SDS011;14648;49.730;8.614;2023-04-15T12:11:42;2.03;;;1.83;;
27113;SDS011;14648;49.730;8.614;2023-04-15T12:14:29;3.67;;;1.83;;
27113;SDS011;14648;49.730;8.614;2023-04-15T12:17:00;1.60;;;1.50;;
27113;SDS011;14648;49.730;8.614;2023-04-15T12:19:29;2.67;;;2.23;;
27113;SDS011;14648;49.730;8.614;2023-04-15T12:22:12;1.83;;;1.73;;
27113;SDS011;14648;49.730;8.614;2023-04-15T12:24:40;1.70;;;1.60;;
27113;SDS011;14648;49.730;8.614;2023-04-15T12:27:11;4.63;;;2.50;;
27113;SDS011;14648;49.730;8.614;2023-04-15T12:29:40;2.27;;;2.07;;
27113;SDS011;14648;49.730;8.614;2023-04-15T12:37:15;1.63;;;1.20;;
27113;SDS011;14648;49.730;8.614;2023-04-15T12:39:42;1.40;;;1.30;;
27113;SDS011;14648;49.730;8.614;2023-04-15T12:42:10;1.97;;;1.53;;
27113;SDS011;14648;49.730;8.614;2023-04-15T12:44:37;3.30;;;2.00;;
27113;SDS011;14648;49.730;8.614;2023-04-15T12:47:03;3.53;;;2.20;;
27113;SDS011;14648;49.730;8.614;2023-04-15T12:49:30;2.80;;;1.67;;
27113;SDS011;14648;49.730;8.614;2023-04-15T12:51:57;3.37;;;1.80;;
27113;SDS011;14648;49.730;8.614;2023-04-15T12:54:24;1.60;;;1.47;;
27113;SDS011;14648;49.730;8.614;2023-04-15T12:56:51;1.50;;;1.40;;
27113;SDS011;14648;49.730;8.614;2023-04-15T12:59:18;1.43;;;1.30;;
27113;SDS011;14648;49.730;8.614;2023-04-15T13:01:44;2.80;;;1.20;;
27113;SDS011;14648;49.730;8.614;2023-04-15T13:04:12;1.17;;;1.07;;
27113;SDS011;14648;49.730;8.614;2023-04-15T13:06:38;1.83;;;1.70;;
27113;SDS011;14648;49.730;8.614;2023-04-15T13:09:04;3.13;;;1.20;;
27113;SDS011;14648;49.730;8.614;2023-04-15T13:11:30;1.30;;;1.20;;
27113;SDS011;14648;49.730;8.614;2023-04-15T13:13:58;3.37;;;1.00;;
27113;SDS011;14648;49.730;8.614;2023-04-15T13:16:28;1.30;;;1.20;;
27113;SDS011;14648;49.730;8.614;2023-04-15T13:18:56;1.50;;;1.23;;
27113;SDS011;14648;49.730;8.614;2023-04-15T13:21:23;1.53;;;1.43;;
27113;SDS011;14648;49.730;8.614;2023-04-15T13:23:48;1.67;;;1.57;;
27113;SDS011;14648;49.730;8.614;2023-04-15T13:26:17;4.30;;;1.80;;
27113;SDS011;14648;49.730;8.614;2023-04-15T13:28:43;4.40;;;1.73;;
27113;SDS011;14648;49.730;8.614;2023-04-15T13:31:09;2.97;;;1.90;;
27113;SDS011;14648;49.730;8.614;2023-04-15T13:33:35;1.90;;;1.80;;
27113;SDS011;14648;49.730;8.614;2023-04-15T13:36:01;2.33;;;1.70;;
27113;SDS011;14648;49.730;8.614;2023-04-15T13:38:26;2.53;;;1.60;;
27113;SDS011;14648;49.730;8.614;2023-04-15T13:40:52;3.10;;;2.00;;
27113;SDS011;14648;49.730;8.614;2023-04-15T13:43:18;5.53;;;2.03;;
27113;SDS011;14648;49.730;8.614;2023-04-15T13:45:45;1.80;;;1.67;;
27113;SDS011;14648;49.730;8.614;2023-04-15T13:48:11;3.93;;;2.10;;
27113;SDS011;14648;49.730;8.614;2023-04-15T13:50:37;2.50;;;1.17;;
27113;SDS011;14648;49.730;8.614;2023-04-15T13:53:03;1.30;;;1.30;;
27113;SDS011;14648;49.730;8.614;2023-04-15T13:55:29;3.43;;;1.40;;
27113;SDS011;14648;49.730;8.614;2023-04-15T13:57:55;1.77;;;1.67;;
27113;SDS011;14648;49.730;8.614;2023-04-15T14:00:21;2.10;;;1.47;;
27113;SDS011;14648;49.730;8.614;2023-04-15T14:02:46;1.73;;;1.63;;
27113;SDS011;14648;49.730;8.614;2023-04-15T14:05:12;1.70;;;1.60;;
27113;SDS011;14648;49.730;8.614;2023-04-15T14:07:38;2.23;;;1.97;;
27113;SDS011;14648;49.730;8.614;2023-04-15T14:10:05;1.60;;;1.50;;
27113;SDS011;14648;49.730;8.614;2023-04-15T14:12:31;6.53;;;1.70;;
27113;SDS011;14648;49.730;8.614;2023-04-15T14:14:57;4.60;;;1.50;;
27113;SDS011;14648;49.730;8.614;2023-04-15T14:17:23;1.80;;;1.47;;
27113;SDS011;14648;49.730;8.614;2023-04-15T14:19:49;1.40;;;1.30;;
27113;SDS011;14648;49.730;8.614;2023-04-15T14:22:14;1.20;;;1.10;;
27113;SDS011;14648;49.730;8.614;2023-04-15T14:24:43;1.30;;;1.20;;
27113;SDS011;14648;49.730;8.614;2023-04-15T14:27:09;1.30;;;1.20;;
27113;SDS011;14648;49.730;8.614;2023-04-15T14:29:36;1.37;;;1.20;;
27113;SDS011;14648;49.730;8.614;2023-04-15T14:32:02;1.67;;;1.57;;
27113;SDS011;14648;49.730;8.614;2023-04-15T14:34:28;2.63;;;0.93;;
27113;SDS011;14648;49.730;8.614;2023-04-15T14:36:54;1.33;;;1.00;;
27113;SDS011;14648;49.730;8.614;2023-04-15T14:39:20;1.73;;;1.10;;
27113;SDS011;14648;49.730;8.614;2023-04-15T14:41:46;1.50;;;1.40;;
27113;SDS011;14648;49.730;8.614;2023-04-15T14:44:12;1.10;;;1.00;;
27113;SDS011;14648;49.730;8.614;2023-04-15T14:46:38;1.40;;;1.30;;
27113;SDS011;14648;49.730;8.614;2023-04-15T14:49:05;3.67;;;1.50;;
27113;SDS011;14648;49.730;8.614;2023-04-15T14:51:31;1.30;;;1.20;;
27113;SDS011;14648;49.730;8.614;2023-04-15T14:53:57;1.87;;;0.90;;
27113;SDS011;14648;49.730;8.614;2023-04-15T14:56:25;1.20;;;1.00;;
27113;SDS011;14648;49.730;8.614;2023-04-15T14:58:51;0.90;;;0.90;;
27113;SDS011;14648;49.730;8.614;2023-04-15T15:01:18;1.17;;;0.90;;